Terminal Aerodrome Forecast
Issued by NWS

Home | Current Version | Previous Version | Text Only | Print | Product List | Glossary On
Versions: 1 2 3 4 5 6 7 8 9 10 11 12 13 14 15 16 17 18 19 20 21
613
FTUS46 KSEW 212339
TAFBLI
TAF
KBLI 212339Z 2200/2224 22006KT P6SM SCT025 BKN050
     FM220700 17004KT P6SM VCSH SCT015 BKN025 OVC040
      TEMPO 2212/2216 5SM -SHRA BKN015 OVC025
     FM222100 18005KT P6SM SCT025=

USA.gov is the U.S. government's official web portal to all federal, state and local government web resources and services.